Time;durP1;ratioP1;P1;durP2;ratioP2;P2;SDS_P1;SDS_P2;PMS_P1;PMS_P2;Temp;Humidity;BMP_temperature;BMP_pressure;BME280_temperature;BME280_humidity;BME280_pressure;Samples;Min_cycle;Max_cycle;Signal;HPM_P1;HPM_P2
2020/12/03 00:00:41;;;;;;;3.00;2.80;;;18.70;23.90;;;;;;5093601;28;20628;-56
2020/12/03 00:03:17;;;;;;;2.47;2.28;;;18.60;23.90;;;;;;5093787;28;20154;-56
2020/12/03 00:05:48;;;;;;;2.88;2.67;;;18.70;23.90;;;;;;5093596;28;20215;-56
2020/12/03 00:08:14;;;;;;;3.15;2.95;;;18.70;24.00;;;;;;5076506;28;20178;-56
2020/12/03 00:10:40;;;;;;;2.60;2.37;;;18.70;23.90;;;;;;5075767;28;20208;-56
2020/12/03 00:13:10;;;;;;;2.92;2.60;;;18.70;23.90;;;;;;5093611;28;20422;-56
2020/12/03 00:15:37;;;;;;;2.50;2.30;;;18.70;23.90;;;;;;5093363;28;20186;-56
2020/12/03 00:18:03;;;;;;;2.33;2.10;;;18.70;23.90;;;;;;5093775;28;20150;-56
2020/12/03 00:20:29;;;;;;;4.57;3.17;;;18.70;23.80;;;;;;5093206;28;20151;-56
2020/12/03 00:22:55;;;;;;;3.00;2.57;;;18.70;23.80;;;;;;5075536;28;20173;-55
2020/12/03 00:25:20;;;;;;;2.40;2.20;;;18.80;23.90;;;;;;5093534;28;20158;-55
2020/12/03 00:27:55;;;;;;;3.20;2.43;;;18.80;23.80;;;;;;5093471;28;20689;-55
2020/12/03 00:30:21;;;;;;;3.00;2.75;;;18.80;23.70;;;;;;5093497;28;20161;-55
2020/12/03 00:32:49;;;;;;;3.40;3.10;;;18.80;23.70;;;;;;5093499;28;20150;-55
2020/12/03 00:35:16;;;;;;;3.40;3.13;;;18.90;23.70;;;;;;5092698;28;20181;-55
2020/12/03 00:37:42;;;;;;;2.63;2.42;;;18.90;23.60;;;;;;5093587;28;20154;-55
2020/12/03 00:40:08;;;;;;;2.45;2.25;;;18.90;23.60;;;;;;5093224;28;20648;-55
2020/12/03 00:42:34;;;;;;;2.60;2.40;;;18.90;23.50;;;;;;5077938;28;20173;-55
2020/12/03 00:44:59;;;;;;;3.25;2.95;;;19.00;24.10;;;;;;5078860;28;20182;-55
2020/12/03 00:47:25;;;;;;;3.00;2.73;;;19.00;23.50;;;;;;5097006;28;20590;-55
2020/12/03 00:49:51;;;;;;;2.63;2.43;;;19.00;23.50;;;;;;5096553;28;20188;-55
2020/12/03 00:52:16;;;;;;;2.63;2.10;;;19.00;23.50;;;;;;5097439;28;20257;-55
2020/12/03 00:54:43;;;;;;;2.53;2.33;;;19.10;23.60;;;;;;5096976;28;20186;-54
2020/12/03 00:57:10;;;;;;;2.55;2.35;;;19.10;23.60;;;;;;5096783;28;20225;-54
2020/12/03 00:59:40;;;;;;;2.60;2.40;;;19.10;23.60;;;;;;5079057;28;20196;-55
2020/12/03 01:02:11;;;;;;;3.00;2.55;;;19.10;23.60;;;;;;5096870;28;20147;-56
2020/12/03 01:04:37;;;;;;;2.65;2.10;;;19.20;23.60;;;;;;5096322;28;20206;-55
2020/12/03 01:07:03;;;;;;;2.15;1.95;;;19.20;23.60;;;;;;5096825;28;20150;-55
2020/12/03 01:09:29;;;;;;;2.67;2.47;;;19.20;23.60;;;;;;5096792;28;20173;-55
2020/12/03 01:11:58;;;;;;;2.50;2.30;;;19.20;23.60;;;;;;5096476;28;20379;-55
2020/12/03 01:14:23;;;;;;;2.60;2.40;;;19.30;23.70;;;;;;5096943;28;20154;-55
2020/12/03 01:16:49;;;;;;;2.63;2.43;;;19.30;23.70;;;;;;5078451;28;20160;-55
2020/12/03 01:19:15;;;;;;;2.60;2.40;;;19.30;23.60;;;;;;5096498;28;20632;-55
2020/12/03 01:21:41;;;;;;;2.33;2.20;;;19.30;23.50;;;;;;5061582;28;20157;-55
2020/12/03 01:24:07;;;;;;;2.63;2.43;;;19.30;23.50;;;;;;5096502;28;20166;-55
2020/12/03 01:26:33;;;;;;;2.10;1.90;;;19.40;23.50;;;;;;5078376;28;20254;-55
2020/12/03 01:28:59;;;;;;;2.63;2.40;;;19.40;23.90;;;;;;5096312;28;20264;-55
2020/12/03 01:31:31;;;;;;;2.63;2.43;;;19.40;23.40;;;;;;5096229;28;20194;-55
2020/12/03 01:33:59;;;;;;;2.40;2.20;;;19.40;23.30;;;;;;5096184;28;20240;-56
2020/12/03 01:36:28;;;;;;;2.33;2.13;;;19.40;23.40;;;;;;5095590;28;20182;-55
2020/12/03 01:38:54;;;;;;;3.00;2.80;;;19.40;23.40;;;;;;5096213;28;20204;-55
2020/12/03 01:41:19;;;;;;;2.43;2.23;;;19.50;23.30;;;;;;5078016;28;20161;-55
2020/12/03 01:43:46;;;;;;;2.50;2.30;;;19.50;23.30;;;;;;5096328;28;20490;-55
2020/12/03 01:46:13;;;;;;;2.40;2.05;;;19.50;23.20;;;;;;5096029;28;20332;-55
2020/12/03 01:48:56;;;;;;;3.78;2.35;;;19.50;23.20;;;;;;5095867;28;20176;-55
2020/12/03 01:51:31;;;;;;;2.40;2.20;;;19.50;23.20;;;;;;5095508;28;20190;-55
2020/12/03 01:54:00;;;;;;;2.50;2.30;;;19.50;23.20;;;;;;5095753;28;20145;-55
2020/12/03 01:57:03;;;;;;;2.42;2.22;;;19.50;23.20;;;;;;5095510;28;20660;-55
2020/12/03 01:59:40;;;;;;;2.40;2.17;;;19.50;23.20;;;;;;5040238;28;20185;-55
2020/12/03 02:02:08;;;;;;;2.50;2.10;;;19.50;23.20;;;;;;5095677;28;20150;-55
2020/12/03 02:04:34;;;;;;;2.63;2.40;;;19.50;23.20;;;;;;5077264;28;20173;-55
2020/12/03 02:07:07;;;;;;;2.80;2.50;;;19.50;23.10;;;;;;5077574;28;20165;-55
2020/12/03 02:09:33;;;;;;;2.70;2.50;;;19.60;23.20;;;;;;5095551;28;20154;-55
2020/12/03 02:11:59;;;;;;;2.45;2.25;;;19.60;23.10;;;;;;5077409;28;20169;-55
2020/12/03 02:14:27;;;;;;;2.23;2.03;;;19.60;23.10;;;;;;5095417;28;20169;-55
2020/12/03 02:16:54;;;;;;;2.15;2.05;;;19.60;23.10;;;;;;5095363;28;20397;-55
2020/12/03 02:19:23;;;;;;;2.35;2.15;;;19.60;23.10;;;;;;5095381;28;20598;-55
2020/12/03 02:22:06;;;;;;;2.90;2.60;;;19.60;23.10;;;;;;5094820;28;20154;-55
2020/12/03 02:24:40;;;;;;;2.17;1.98;;;19.60;23.10;;;;;;5095441;28;20238;-55
2020/12/03 02:27:08;;;;;;;3.08;2.78;;;19.60;23.10;;;;;;5095255;28;20629;-54
2020/12/03 02:29:34;;;;;;;2.58;2.22;;;19.60;23.10;;;;;;5095076;28;20161;-55
2020/12/03 02:32:00;;;;;;;2.45;2.25;;;19.60;23.10;;;;;;5095194;28;20161;-54
2020/12/03 02:34:29;;;;;;;3.07;2.77;;;19.60;23.10;;;;;;5095026;28;20647;-54
2020/12/03 02:37:01;;;;;;;2.33;2.13;;;19.60;23.00;;;;;;5076385;28;20432;-54
2020/12/03 02:39:29;;;;;;;2.35;2.15;;;19.60;23.00;;;;;;5077882;28;20180;-54
2020/12/03 02:41:55;;;;;;;2.40;2.20;;;19.60;23.00;;;;;;5094839;28;20166;-54
2020/12/03 02:44:21;;;;;;;2.20;2.00;;;19.70;23.10;;;;;;5095008;28;20154;-55
2020/12/03 02:46:47;;;;;;;2.90;2.70;;;19.70;23.10;;;;;;5094807;28;20180;-55
2020/12/03 02:49:13;;;;;;;2.35;2.10;;;19.70;23.00;;;;;;5076507;28;20398;-55
2020/12/03 02:51:40;;;;;;;2.25;2.05;;;19.70;23.00;;;;;;5094456;28;20268;-55
2020/12/03 02:54:07;;;;;;;2.42;2.13;;;19.70;23.10;;;;;;5094521;28;20192;-55
2020/12/03 02:56:33;;;;;;;2.40;2.20;;;19.70;23.00;;;;;;5094416;28;20213;-55
2020/12/03 02:58:59;;;;;;;1.97;1.87;;;19.70;23.00;;;;;;5094601;28;20206;-55
2020/12/03 03:01:25;;;;;;;2.50;2.10;;;19.80;23.00;;;;;;5094395;28;20403;-55
2020/12/03 03:03:50;;;;;;;2.53;2.33;;;19.80;23.00;;;;;;5094148;28;20268;-55
2020/12/03 03:06:16;;;;;;;1.97;1.83;;;19.80;22.90;;;;;;5093992;28;20164;-55
2020/12/03 03:08:41;;;;;;;2.60;2.40;;;19.80;22.90;;;;;;5094417;28;20646;-55
2020/12/03 03:11:07;;;;;;;2.20;2.00;;;19.80;22.90;;;;;;5094375;28;20162;-55
2020/12/03 03:13:33;;;;;;;1.90;1.80;;;19.90;22.90;;;;;;5094801;28;20620;-55
2020/12/03 03:16:01;;;;;;;2.90;2.40;;;19.90;22.90;;;;;;5094090;28;20715;-54
2020/12/03 03:18:27;;;;;;;2.42;2.22;;;19.90;22.80;;;;;;5076377;28;20609;-55
2020/12/03 03:20:53;;;;;;;2.70;2.47;;;19.90;22.80;;;;;;5093656;28;20161;-55
2020/12/03 03:23:18;;;;;;;2.13;2.03;;;19.90;22.80;;;;;;5094254;28;20249;-55
2020/12/03 03:25:44;;;;;;;2.27;2.07;;;20.00;22.80;;;;;;5076137;28;20612;-55
2020/12/03 03:28:11;;;;;;;2.05;1.90;;;20.00;22.80;;;;;;5094221;28;20158;-55
2020/12/03 03:30:37;;;;;;;2.25;2.05;;;20.00;22.80;;;;;;5075982;28;20669;-55
2020/12/03 03:33:04;;;;;;;2.63;2.37;;;20.00;22.70;;;;;;5094140;28;20259;-55
2020/12/03 03:35:29;;;;;;;2.22;2.03;;;20.00;22.70;;;;;;5093477;28;20196;-56
2020/12/03 03:37:58;;;;;;;2.30;2.10;;;20.10;22.80;;;;;;5093901;28;20162;-56
2020/12/03 03:40:24;;;;;;;2.22;2.03;;;20.10;22.70;;;;;;5093981;28;20613;-56
2020/12/03 03:42:50;;;;;;;2.43;2.23;;;20.10;22.60;;;;;;5075848;28;20199;-55
2020/12/03 03:45:16;;;;;;;2.13;1.93;;;20.10;22.60;;;;;;5093890;28;20418;-55
2020/12/03 03:47:43;;;;;;;2.20;2.10;;;20.10;22.60;;;;;;5093903;28;20767;-55
2020/12/03 03:50:10;;;;;;;2.22;2.03;;;20.20;22.60;;;;;;5093300;28;20165;-56
2020/12/03 03:52:36;;;;;;;1.95;1.85;;;20.20;22.60;;;;;;5093761;28;20165;-55
2020/12/03 03:55:01;;;;;;;2.03;1.92;;;20.20;22.50;;;;;;5093707;28;20221;-55
2020/12/03 03:57:27;;;;;;;2.30;2.10;;;20.20;22.50;;;;;;5093686;28;20290;-55
2020/12/03 03:59:53;;;;;;;2.30;2.10;;;20.20;22.50;;;;;;5093751;28;20242;-56
2020/12/03 04:02:20;;;;;;;2.03;1.83;;;20.30;22.50;;;;;;5093877;28;20637;-56
2020/12/03 04:04:47;;;;;;;2.25;2.05;;;20.30;22.50;;;;;;5093368;28;20157;-55
2020/12/03 04:07:13;;;;;;;2.30;2.10;;;20.30;22.50;;;;;;5093503;28;20162;-55
2020/12/03 04:09:39;;;;;;;2.00;1.90;;;20.30;22.50;;;;;;5093618;28;20161;-55
2020/12/03 04:12:05;;;;;;;1.90;1.80;;;20.30;22.50;;;;;;5093736;28;20366;-55
2020/12/03 04:14:31;;;;;;;2.00;1.90;;;20.30;22.50;;;;;;5093668;28;20565;-55
2020/12/03 04:16:57;;;;;;;1.60;1.50;;;20.30;22.50;;;;;;5077396;28;20165;-55
2020/12/03 04:19:23;;;;;;;1.90;1.80;;;20.30;22.40;;;;;;5097611;28;20164;-54
2020/12/03 04:21:48;;;;;;;2.07;1.97;;;20.30;22.40;;;;;;5097310;28;20431;-55
2020/12/03 04:24:14;;;;;;;2.00;1.90;;;20.30;22.50;;;;;;5097710;28;20641;-55
2020/12/03 04:26:40;;;;;;;2.87;2.57;;;20.30;22.40;;;;;;5097458;28;20150;-55
2020/12/03 04:29:05;;;;;;;2.20;2.00;;;20.30;22.40;;;;;;5097505;28;20145;-54
2020/12/03 04:31:31;;;;;;;2.00;1.90;;;20.40;22.50;;;;;;5097452;28;20150;-54
2020/12/03 04:34:03;;;;;;;2.50;2.30;;;20.40;22.50;;;;;;5097340;28;20150;-55
2020/12/03 04:36:29;;;;;;;2.13;1.70;;;20.40;22.50;;;;;;5096750;28;20274;-55
2020/12/03 04:38:55;;;;;;;2.40;2.15;;;20.40;22.50;;;;;;5097411;28;20162;-55
2020/12/03 04:41:21;;;;;;;1.93;1.83;;;20.40;22.40;;;;;;5097209;28;20620;-55
2020/12/03 04:43:55;;;;;;;3.97;2.70;;;20.40;22.40;;;;;;5097452;28;20525;-55
2020/12/03 04:46:36;;;;;;;2.08;1.92;;;20.40;22.40;;;;;;5097096;28;20616;-55
2020/12/03 04:49:23;;;;;;;2.00;1.85;;;20.40;22.40;;;;;;5096834;28;20177;-55
2020/12/03 04:52:28;;;;;;;2.15;2.05;;;20.40;22.40;;;;;;5096779;28;20605;-55
2020/12/03 04:55:17;;;;;;;2.05;1.85;;;20.40;22.40;;;;;;5096817;28;20272;-55
2020/12/03 04:58:27;;;;;;;2.55;2.15;;;20.40;22.40;;;;;;5096859;28;20216;-55
2020/12/03 05:01:35;;;;;;;1.92;1.83;;;20.40;22.30;;;;;;5083369;28;20178;-55
2020/12/03 05:04:39;;;;;;;2.05;1.95;;;20.50;22.40;;;;;;5049559;28;20209;-55
2020/12/03 05:07:11;;;;;;;1.73;1.63;;;20.50;22.40;;;;;;4995124;28;20762;-55
2020/12/03 05:10:16;;;;;;;2.50;2.30;;;20.50;22.40;;;;;;5080357;28;20212;-55
2020/12/03 05:12:43;;;;;;;2.30;2.10;;;20.50;22.30;;;;;;5092839;28;20181;-55
2020/12/03 05:15:28;;;;;;;2.25;2.13;;;20.50;22.30;;;;;;5096432;28;20185;-55
2020/12/03 05:18:12;;;;;;;2.08;1.95;;;20.50;22.30;;;;;;5096480;28;20196;-55
2020/12/03 05:20:53;;;;;;;2.00;1.90;;;20.50;22.30;;;;;;5095862;28;20158;-55
2020/12/03 05:23:29;;;;;;;2.03;1.92;;;20.60;22.30;;;;;;5096522;28;20150;-55
2020/12/03 05:25:56;;;;;;;2.30;2.10;;;20.60;22.30;;;;;;5096323;28;20244;-55
2020/12/03 05:28:21;;;;;;;2.03;1.83;;;20.60;22.30;;;;;;5096035;28;20202;-56
2020/12/03 05:30:55;;;;;;;1.77;1.67;;;20.60;22.30;;;;;;5096349;28;20142;-56
2020/12/03 05:33:21;;;;;;;2.33;2.13;;;20.60;22.20;;;;;;5096493;28;20187;-56
2020/12/03 05:35:46;;;;;;;2.10;1.90;;;20.60;22.20;;;;;;5095739;28;20186;-56
2020/12/03 05:38:17;;;;;;;2.30;2.10;;;20.70;22.20;;;;;;5077896;28;20178;-56
2020/12/03 05:40:53;;;;;;;1.75;1.65;;;20.70;22.20;;;;;;5096108;28;20172;-56
2020/12/03 05:43:19;;;;;;;2.25;2.10;;;20.70;22.20;;;;;;5078101;28;20173;-56
2020/12/03 05:45:45;;;;;;;1.77;1.65;;;20.70;21.70;;;;;;5096054;28;20173;-56
2020/12/03 05:48:15;;;;;;;2.20;2.00;;;20.70;22.10;;;;;;5095779;28;20186;-56
2020/12/03 05:50:42;;;;;;;1.80;1.70;;;20.70;22.10;;;;;;5077270;28;20177;-56
2020/12/03 05:53:08;;;;;;;1.60;1.50;;;20.70;22.10;;;;;;5095814;28;20157;-56
2020/12/03 05:55:34;;;;;;;2.03;1.93;;;20.80;22.20;;;;;;5095773;28;20185;-56
2020/12/03 05:58:27;;;;;;;2.00;1.90;;;20.80;21.60;;;;;;5095845;28;20217;-56
2020/12/03 06:01:08;;;;;;;1.70;1.60;;;20.80;22.10;;;;;;5095777;28;20154;-55
2020/12/03 06:04:05;;;;;;;2.10;1.90;;;20.80;22.10;;;;;;5095993;28;20154;-56
2020/12/03 06:07:05;;;;;;;2.40;2.20;;;20.90;22.10;;;;;;5095157;28;20218;-56
2020/12/03 06:10:04;;;;;;;1.88;1.77;;;20.90;22.10;;;;;;5095524;28;20181;-55
2020/12/03 06:13:21;;;;;;;1.42;1.33;;;20.90;22.00;;;;;;5077034;28;20567;-55
2020/12/03 06:15:49;;;;;;;1.83;1.73;;;20.90;22.00;;;;;;5088275;28;20213;-55
2020/12/03 06:18:15;;;;;;;1.42;1.30;;;21.00;22.00;;;;;;5095391;28;20162;-55
2020/12/03 06:21:10;;;;;;;2.30;2.10;;;21.00;22.00;;;;;;5094716;28;20165;-55
2020/12/03 06:23:35;;;;;;;2.00;1.83;;;21.00;22.00;;;;;;5095070;28;20613;-55
2020/12/03 06:26:34;;;;;;;2.30;2.00;;;21.00;21.90;;;;;;5095292;28;20146;-55
2020/12/03 06:29:02;;;;;;;1.60;1.50;;;21.10;21.90;;;;;;5095189;28;20165;-56
2020/12/03 06:31:44;;;;;;;1.80;1.70;;;21.10;21.90;;;;;;5094822;28;20609;-55
2020/12/03 06:34:31;;;;;;;1.63;1.52;;;21.10;21.80;;;;;;5094946;28;20166;-56
2020/12/03 06:37:14;;;;;;;1.80;1.70;;;21.10;21.80;;;;;;5094820;28;20158;-56
2020/12/03 06:39:48;;;;;;;1.80;1.70;;;21.10;21.80;;;;;;5075840;28;20641;-56
2020/12/03 06:42:27;;;;;;;1.80;1.70;;;21.20;21.80;;;;;;5095200;28;20224;-57
2020/12/03 06:44:58;;;;;;;1.88;1.73;;;21.20;21.80;;;;;;5094696;28;20153;-56
2020/12/03 06:47:42;;;;;;;1.40;1.30;;;21.20;21.80;;;;;;5094809;28;20203;-56
2020/12/03 06:50:34;;;;;;;2.00;1.80;;;21.30;21.80;;;;;;5094171;28;20161;-56
2020/12/03 06:53:08;;;;;;;2.00;1.80;;;21.30;21.70;;;;;;5076488;28;20193;-56
2020/12/03 06:56:09;;;;;;;2.00;1.90;;;21.30;21.70;;;;;;5094499;28;20189;-56
2020/12/03 06:58:46;;;;;;;1.60;1.50;;;21.30;21.60;;;;;;5094029;28;20223;-56
2020/12/03 07:01:37;;;;;;;1.80;1.70;;;21.30;21.60;;;;;;5076158;28;20169;-57
2020/12/03 07:04:29;;;;;;;2.78;1.77;;;21.30;21.60;;;;;;5094407;28;20161;-57
2020/12/03 07:07:27;;;;;;;1.83;1.73;;;21.30;21.50;;;;;;5093985;28;20169;-57
2020/12/03 07:10:23;;;;;;;1.83;1.63;;;21.40;21.60;;;;;;5076118;28;20165;-57
2020/12/03 07:13:11;;;;;;;2.10;1.98;;;21.40;21.60;;;;;;5076300;28;20161;-57
2020/12/03 07:16:02;;;;;;;1.85;1.30;;;21.40;21.60;;;;;;5094334;28;20190;-58
2020/12/03 07:18:27;;;;;;;2.20;1.95;;;21.40;21.70;;;;;;5075979;28;20173;-56
2020/12/03 07:21:35;;;;;;;2.23;1.70;;;21.40;21.00;;;;;;5075308;28;20170;-56
2020/12/03 07:24:08;;;;;;;1.95;1.45;;;21.50;21.50;;;;;;5093936;28;20277;-56
2020/12/03 07:27:04;;;;;;;1.88;1.77;;;21.50;21.50;;;;;;5075470;28;20264;-56
2020/12/03 07:29:51;;;;;;;1.98;1.88;;;21.50;21.50;;;;;;5093757;28;20157;-57
2020/12/03 07:32:26;;;;;;;1.60;1.50;;;21.50;21.40;;;;;;5093897;28;20654;-56
2020/12/03 07:35:19;;;;;;;1.88;1.77;;;21.50;21.40;;;;;;5093739;28;20196;-55
2020/12/03 07:38:30;;;;;;;2.15;1.95;;;21.50;21.40;;;;;;5093889;28;20150;-56
2020/12/03 07:40:58;;;;;;;2.03;1.92;;;21.50;21.40;;;;;;4992098;28;20223;-56
2020/12/03 07:43:30;;;;;;;1.70;1.55;;;21.50;21.40;;;;;;4992234;28;20253;-55
2020/12/03 07:46:33;;;;;;;1.48;1.38;;;21.50;21.40;;;;;;5028549;28;20571;-55
2020/12/03 07:49:00;;;;;;;1.55;1.45;;;21.50;21.90;;;;;;5093393;28;20618;-56
2020/12/03 07:51:29;;;;;;;1.90;1.70;;;21.50;21.30;;;;;;5074624;28;20616;-56
2020/12/03 07:54:17;;;;;;;1.92;1.83;;;21.50;21.30;;;;;;5093437;28;20252;-56
2020/12/03 07:56:47;;;;;;;3.75;1.35;;;21.50;21.40;;;;;;5079550;28;20300;-57
2020/12/03 07:59:25;;;;;;;1.50;1.40;;;21.50;21.30;;;;;;5019513;28;20217;-55
2020/12/03 08:01:52;;;;;;;2.00;1.38;;;21.50;21.40;;;;;;5055690;28;20176;-56
2020/12/03 08:04:18;;;;;;;1.65;1.55;;;22.20;21.80;;;;;;5060555;28;20201;-56
2020/12/03 08:07:03;;;;;;;1.40;1.30;;;21.50;21.30;;;;;;5063475;28;20738;-56
2020/12/03 08:09:43;;;;;;;1.65;1.48;;;21.50;21.30;;;;;;5036171;28;20308;-56
2020/12/03 08:12:16;;;;;;;2.20;1.70;;;21.50;21.40;;;;;;5063357;28;20178;-56
2020/12/03 08:14:46;;;;;;;1.60;1.50;;;21.50;21.50;;;;;;5055142;28;20197;-57
2020/12/03 08:17:15;;;;;;;1.75;1.65;;;21.50;21.40;;;;;;5061422;28;20197;-56
2020/12/03 08:19:41;;;;;;;1.80;1.60;;;21.50;21.40;;;;;;5031771;28;20716;-56
2020/12/03 08:22:35;;;;;;;2.67;2.13;;;21.50;21.50;;;;;;5050173;28;20184;-56
2020/12/03 08:25:01;;;;;;;1.73;1.63;;;21.50;21.50;;;;;;5031189;28;20648;-56
2020/12/03 08:27:27;;;;;;;2.00;1.80;;;21.50;21.50;;;;;;5065491;28;20617;-56
2020/12/03 08:29:53;;;;;;;2.03;1.83;;;21.50;22.10;;;;;;5050933;28;20166;-56
2020/12/03 08:32:18;;;;;;;1.73;1.63;;;21.50;21.50;;;;;;5063167;28;20578;-56
2020/12/03 08:34:44;;;;;;;1.40;1.30;;;21.50;21.50;;;;;;5064931;28;20567;-56
2020/12/03 08:37:28;;;;;;;1.70;1.60;;;21.50;21.50;;;;;;5062119;28;20579;-56
2020/12/03 08:39:55;;;;;;;2.20;2.00;;;21.50;21.50;;;;;;5042897;28;20427;-57
2020/12/03 08:42:21;;;;;;;1.73;1.60;;;21.50;21.50;;;;;;5059799;28;20610;-56
2020/12/03 08:44:48;;;;;;;2.27;2.07;;;21.50;21.50;;;;;;5030236;28;20276;-56
2020/12/03 08:47:28;;;;;;;2.13;1.70;;;21.50;21.50;;;;;;5044430;28;20414;-57
2020/12/03 08:49:55;;;;;;;1.35;1.25;;;21.50;21.60;;;;;;5049183;28;20265;-57
2020/12/03 08:52:22;;;;;;;1.70;1.60;;;21.50;21.50;;;;;;5064521;28;20198;-56
2020/12/03 08:54:49;;;;;;;1.75;1.65;;;21.50;21.60;;;;;;5037953;28;20296;-57
2020/12/03 08:57:16;;;;;;;1.70;1.60;;;21.50;22.20;;;;;;5054293;28;20213;-56
2020/12/03 08:59:54;;;;;;;1.85;1.70;;;21.50;21.60;;;;;;5046512;28;20162;-56
2020/12/03 09:02:23;;;;;;;1.63;1.48;;;21.40;21.50;;;;;;5059877;28;20261;-55
2020/12/03 09:05:06;;;;;;;1.45;1.35;;;21.40;21.50;;;;;;5076243;28;20577;-57
2020/12/03 09:07:41;;;;;;;2.70;1.67;;;21.40;21.50;;;;;;5062507;28;20185;-57
2020/12/03 09:10:10;;;;;;;1.92;1.73;;;21.40;21.50;;;;;;5042696;28;20201;-57
2020/12/03 09:12:39;;;;;;;1.80;1.70;;;21.40;21.60;;;;;;5067328;28;20722;-54
2020/12/03 09:15:07;;;;;;;2.05;1.85;;;21.40;21.60;;;;;;5049246;28;20640;-54
2020/12/03 09:17:39;;;;;;;1.50;1.40;;;21.40;21.60;;;;;;5066923;28;20170;-54
2020/12/03 09:20:07;;;;;;;1.85;1.65;;;21.40;21.60;;;;;;5050225;28;20174;-55
2020/12/03 09:22:35;;;;;;;1.42;1.30;;;21.40;21.60;;;;;;5037393;28;20594;-54
2020/12/03 09:25:07;;;;;;;1.85;1.50;;;21.40;21.70;;;;;;5044098;28;20178;-53
2020/12/03 09:27:41;;;;;;;1.55;1.45;;;21.40;21.80;;;;;;5064104;28;20196;-54
2020/12/03 09:30:17;;;;;;;1.55;1.40;;;21.40;21.70;;;;;;5046115;28;20193;-54
2020/12/03 09:32:49;;;;;;;1.70;1.58;;;21.40;21.70;;;;;;5069895;28;20617;-56
2020/12/03 09:35:16;;;;;;;1.38;1.27;;;21.40;21.80;;;;;;5060263;28;21037;-54
2020/12/03 09:37:42;;;;;;;1.85;1.75;;;21.40;21.80;;;;;;5065683;28;20154;-54
2020/12/03 09:40:09;;;;;;;1.73;1.63;;;21.40;21.80;;;;;;5044464;28;20203;-54
2020/12/03 09:42:43;;;;;;;1.25;1.15;;;21.30;21.70;;;;;;5062116;28;20410;-54
2020/12/03 09:45:17;;;;;;;1.30;1.20;;;21.30;21.70;;;;;;5035884;28;20189;-53
2020/12/03 09:47:45;;;;;;;1.80;1.70;;;21.30;21.80;;;;;;5070177;28;20166;-54
2020/12/03 09:50:13;;;;;;;2.17;1.60;;;21.30;21.70;;;;;;5023530;28;20254;-55
2020/12/03 09:52:42;;;;;;;2.15;1.85;;;21.30;21.80;;;;;;5058390;28;20182;-54
2020/12/03 09:55:10;;;;;;;1.95;1.85;;;21.30;21.80;;;;;;5027815;28;20296;-54
2020/12/03 09:57:36;;;;;;;2.55;1.60;;;21.30;21.80;;;;;;5049750;28;20213;-54
2020/12/03 10:00:07;;;;;;;2.03;1.93;;;21.30;21.80;;;;;;5033203;28;20171;-53
2020/12/03 10:02:56;;;;;;;1.75;1.40;;;21.30;21.80;;;;;;5059529;28;20421;-52
2020/12/03 10:05:49;;;;;;;1.83;1.73;;;21.30;21.80;;;;;;5024265;28;20181;-54
2020/12/03 10:08:46;;;;;;;2.13;1.92;;;21.30;21.80;;;;;;5047262;28;20629;-53
2020/12/03 10:11:37;;;;;;;1.38;1.27;;;21.30;21.80;;;;;;5040253;28;20217;-53
2020/12/03 10:14:24;;;;;;;1.80;1.70;;;21.30;21.80;;;;;;5044401;28;20197;-54
2020/12/03 10:16:59;;;;;;;1.83;1.60;;;21.30;21.90;;;;;;5063382;28;20251;-54
2020/12/03 10:19:26;;;;;;;1.50;1.40;;;21.30;21.90;;;;;;5016227;28;20701;-53
2020/12/03 10:21:57;;;;;;;1.70;1.58;;;21.30;21.90;;;;;;5033104;28;20200;-54
2020/12/03 10:24:26;;;;;;;1.52;1.42;;;21.30;21.90;;;;;;5061578;28;20172;-54
2020/12/03 10:27:16;;;;;;;1.65;1.55;;;21.30;21.90;;;;;;5053895;28;20189;-54
2020/12/03 10:29:57;;;;;;;1.65;1.55;;;21.30;21.90;;;;;;5031611;28;20184;-54
2020/12/03 10:32:24;;;;;;;4.18;1.88;;;21.30;22.00;;;;;;5050800;28;20253;-54
2020/12/03 10:34:51;;;;;;;2.10;1.38;;;21.20;21.90;;;;;;5057619;28;20193;-54
2020/12/03 10:37:43;;;;;;;1.70;1.60;;;21.20;21.90;;;;;;5053619;28;20655;-54
2020/12/03 10:40:16;;;;;;;1.70;1.60;;;21.20;22.00;;;;;;5012368;28;20165;-53
2020/12/03 10:42:57;;;;;;;2.00;1.80;;;21.20;22.00;;;;;;5040371;28;20181;-53
2020/12/03 10:45:29;;;;;;;1.70;1.60;;;21.20;22.00;;;;;;5051730;28;20178;-53
2020/12/03 10:48:19;;;;;;;1.27;1.17;;;21.20;22.00;;;;;;5042013;28;20181;-55
2020/12/03 10:50:51;;;;;;;1.90;1.70;;;21.20;22.00;;;;;;5020691;28;20194;-54
2020/12/03 10:53:22;;;;;;;1.70;1.60;;;21.20;22.00;;;;;;5059352;28;21823;-54
2020/12/03 10:56:11;;;;;;;1.80;1.52;;;21.20;22.00;;;;;;5051475;28;20565;-55
2020/12/03 10:59:30;;;;;;;1.73;1.30;;;21.30;22.10;;;;;;5041464;28;20272;-54
2020/12/03 11:01:57;;;;;;;1.60;1.50;;;21.10;22.00;;;;;;5048102;28;20170;-53
2020/12/03 11:04:24;;;;;;;1.58;1.20;;;21.10;22.00;;;;;;5061726;28;20186;-55
2020/12/03 11:06:50;;;;;;;1.35;1.25;;;21.10;22.10;;;;;;5028548;28;20233;-55
2020/12/03 11:09:19;;;;;;;1.47;1.20;;;21.10;22.00;;;;;;5038256;28;20542;-54
2020/12/03 11:11:47;;;;;;;2.55;1.65;;;21.10;22.10;;;;;;5048818;28;20234;-53
2020/12/03 11:14:14;;;;;;;1.67;1.50;;;21.10;22.10;;;;;;5040263;28;20189;-53
2020/12/03 11:16:51;;;;;;;1.33;1.15;;;21.10;22.10;;;;;;5040865;28;20189;-54
2020/12/03 11:19:18;;;;;;;1.77;1.67;;;21.10;22.10;;;;;;5037873;28;20169;-54
2020/12/03 11:21:58;;;;;;;1.67;1.58;;;21.10;22.10;;;;;;5049163;28;20166;-54
2020/12/03 11:24:33;;;;;;;1.85;1.70;;;21.10;22.10;;;;;;5059605;28;20176;-53
2020/12/03 11:27:03;;;;;;;1.50;1.40;;;21.10;22.20;;;;;;5050111;28;20165;-54
2020/12/03 11:29:35;;;;;;;1.45;1.23;;;21.10;22.20;;;;;;5011276;28;20174;-54
2020/12/03 11:32:01;;;;;;;1.50;1.40;;;21.00;22.10;;;;;;5057678;28;20223;-54
2020/12/03 11:34:39;;;;;;;2.03;1.73;;;21.40;22.40;;;;;;5055913;28;20157;-54
2020/12/03 11:37:08;;;;;;;1.65;1.55;;;21.00;22.10;;;;;;5056107;28;20416;-54
2020/12/03 11:39:34;;;;;;;2.55;2.33;;;21.00;22.10;;;;;;5034835;28;20411;-54
2020/12/03 11:42:42;;;;;;;1.83;1.73;;;21.00;22.20;;;;;;5026504;28;20235;-54
2020/12/03 11:46:24;;;;;;;1.83;1.63;;;21.00;22.20;;;;;;5059728;28;20226;-54
2020/12/03 11:50:52;;;;;;;1.40;1.30;;;21.00;22.20;;;;;;5044455;28;20853;-53
2020/12/03 11:53:21;;;;;;;1.50;1.40;;;21.00;22.20;;;;;;5048837;28;20173;-54
2020/12/03 11:55:47;;;;;;;1.80;1.70;;;21.00;22.30;;;;;;5050025;28;20209;-54
2020/12/03 11:58:13;;;;;;;1.53;1.43;;;21.00;22.30;;;;;;5030398;28;20173;-54
2020/12/03 12:00:39;;;;;;;2.05;1.60;;;20.90;22.20;;;;;;5050496;28;20386;-53
2020/12/03 12:03:09;;;;;;;1.67;1.57;;;20.90;22.30;;;;;;5050875;28;20517;-54
2020/12/03 12:05:55;;;;;;;1.75;1.50;;;20.90;22.20;;;;;;5068761;28;20395;-54
2020/12/03 12:08:36;;;;;;;1.45;1.35;;;20.90;22.30;;;;;;5026239;28;20181;-53
2020/12/03 12:14:00;;;;;;;1.70;1.60;;;20.90;22.30;;;;;;5033850;28;20712;-51
2020/12/03 12:16:25;;;;;;;1.70;1.33;;;20.90;22.30;;;;;;5038976;28;20205;-55
2020/12/03 12:18:53;;;;;;;1.93;1.57;;;20.90;22.30;;;;;;5025181;28;20547;-53
2020/12/03 12:21:19;;;;;;;1.80;1.70;;;20.90;22.40;;;;;;5028867;28;21249;-53
2020/12/03 12:23:45;;;;;;;1.30;1.20;;;20.90;22.40;;;;;;5050273;28;20182;-55
2020/12/03 12:26:10;;;;;;;1.60;1.50;;;20.90;22.40;;;;;;5044900;28;20173;-54
2020/12/03 12:28:36;;;;;;;1.90;1.70;;;20.80;22.30;;;;;;5021500;28;20698;-53
2020/12/03 12:31:02;;;;;;;1.73;1.57;;;20.90;22.40;;;;;;5056666;28;20736;-53
2020/12/03 12:33:28;;;;;;;1.70;1.50;;;20.80;22.40;;;;;;5062171;28;20645;-53
2020/12/03 12:35:53;;;;;;;3.57;1.60;;;20.80;22.40;;;;;;5046796;28;20209;-53
2020/12/03 12:38:19;;;;;;;1.70;1.50;;;20.80;22.40;;;;;;5022783;28;21671;-53
2020/12/03 12:40:45;;;;;;;1.43;1.33;;;20.80;22.40;;;;;;5035912;28;20695;-53
2020/12/03 12:43:11;;;;;;;2.07;1.83;;;20.80;22.40;;;;;;5061759;28;20166;-53
2020/12/03 12:45:36;;;;;;;1.60;1.50;;;20.80;22.40;;;;;;5060389;28;21564;-54
2020/12/03 12:48:02;;;;;;;1.70;1.60;;;20.80;22.40;;;;;;5030129;28;20544;-55
2020/12/03 12:50:31;;;;;;;1.40;1.30;;;20.80;22.40;;;;;;5042017;28;20622;-54
2020/12/03 12:53:00;;;;;;;1.73;1.63;;;20.70;22.40;;;;;;5032942;28;20170;-54
2020/12/03 12:55:27;;;;;;;1.70;1.60;;;20.80;22.50;;;;;;5037777;28;20468;-54
2020/12/03 12:57:53;;;;;;;3.10;1.48;;;20.70;22.40;;;;;;5037884;28;20320;-53
2020/12/03 13:00:19;;;;;;;1.65;1.55;;;20.70;22.40;;;;;;5030564;28;20185;-53
2020/12/03 13:02:45;;;;;;;1.55;1.45;;;20.70;22.40;;;;;;5040465;28;20293;-54
2020/12/03 13:05:11;;;;;;;2.05;1.80;;;20.70;22.40;;;;;;5059289;28;20176;-54
2020/12/03 13:07:36;;;;;;;2.10;1.80;;;20.70;22.50;;;;;;5054554;28;20186;-54
2020/12/03 13:10:02;;;;;;;1.50;1.40;;;20.70;22.50;;;;;;5046292;28;20185;-54
2020/12/03 13:12:28;;;;;;;1.80;1.50;;;20.70;22.50;;;;;;5055500;28;20235;-54
2020/12/03 13:14:54;;;;;;;1.57;1.40;;;20.70;22.50;;;;;;5059979;28;20424;-55
2020/12/03 13:17:21;;;;;;;1.43;1.33;;;20.70;22.50;;;;;;5052627;28;20261;-54
2020/12/03 13:19:47;;;;;;;1.55;1.45;;;20.70;22.50;;;;;;5042392;28;20605;-53
2020/12/03 13:22:13;;;;;;;1.65;1.55;;;20.70;22.60;;;;;;5061046;28;20166;-53